< < Back
Terminal Aerodrome Forecast


Current Version              Previous Versions:   1  2  3  4  5  6  7  8  9  

Terminal Aerodrome Forecast

519
FTUS44 KOHX 301100
TAFBNA
TAF
KBNA 301124Z 3012/3112 34010KT P6SM OVC025
     FM301700 35010G18KT P6SM BKN040
     FM302000 34008KT P6SM SCT050
     FM310100 36005KT P6SM SCT250=



Latest METAR

903
SAUS70 KWBC 302300 RRA
MTRBNA
METAR KBNA 302253Z 35007KT 10SM SCT250 05/M07 A3043 RMK AO2 SLP307
T00501072


USA.gov is the U.S. government's official web portal to all federal, state and local government web resources and services.